Time;durP1;ratioP1;P1;durP2;ratioP2;P2;SDS_P1;SDS_P2;PMS_P1;PMS_P2;Temp;Humidity;BMP_temperature;BMP_pressure;BME280_temperature;BME280_humidity;BME280_pressure;Samples;Min_cycle;Max_cycle;Signal;HPM_P1;HPM_P2
2023/01/22 00:00:58;;;;;;;24.58;18.27;;;;;;;8.45;89.79;94861.91;5030726;28;20211;-63
2023/01/22 00:03:25;;;;;;;33.30;19.85;;;;;;;8.47;89.81;94872.84;5030517;28;20218;-69
2023/01/22 00:05:52;;;;;;;30.55;20.50;;;;;;;8.52;90.09;94876.91;5030251;28;20223;-67
2023/01/22 00:08:19;;;;;;;33.30;20.17;;;;;;;8.54;89.81;94879.38;5030669;28;20202;-65
2023/01/22 00:10:50;;;;;;;25.30;18.50;;;;;;;8.62;89.59;94887.59;5030229;28;20713;-63
2023/01/22 00:13:17;;;;;;;29.73;19.20;;;;;;;8.71;90.31;94887.31;5029904;28;20326;-65
2023/01/22 00:15:44;;;;;;;33.72;20.15;;;;;;;8.85;90.75;94869.19;5030549;28;20210;-65
2023/01/22 00:18:12;;;;;;;25.48;15.77;;;;;;;8.85;90.26;94879.34;5030457;28;20627;-70
2023/01/22 00:20:39;;;;;;;21.85;14.95;;;;;;;8.68;90.66;94866.31;5030212;28;20207;-63
2023/01/22 00:23:06;;;;;;;23.48;15.75;;;;;;;8.40;92.00;94858.72;5030622;28;20210;-64
2023/01/22 00:25:33;;;;;;;26.08;16.80;;;;;;;8.32;91.96;94847.94;5030373;28;20265;-63
2023/01/22 00:28:00;;;;;;;24.35;15.55;;;;;;;8.41;93.58;94867.97;5030104;28;20202;-64
2023/01/22 00:30:27;;;;;;;27.27;16.85;;;;;;;8.38;93.04;94852.84;5028374;28;20688;-63
2023/01/22 00:32:53;;;;;;;26.25;16.35;;;;;;;8.42;93.66;94847.63;5030341;28;20206;-64
2023/01/22 00:35:21;;;;;;;27.10;16.52;;;;;;;8.45;94.14;94856.84;5026549;28;20211;-63
2023/01/22 00:37:48;;;;;;;24.83;16.17;;;;;;;8.35;94.88;94868.13;5028828;28;20672;-65
2023/01/22 00:40:15;;;;;;;24.25;17.83;;;;;;;8.36;94.46;94874.84;5029622;28;20223;-64
2023/01/22 00:42:42;;;;;;;27.25;18.65;;;;;;;8.38;94.86;94876.47;5030172;28;20218;-63
2023/01/22 00:45:09;;;;;;;27.63;17.30;;;;;;;8.40;95.08;94872.19;5030273;28;20214;-66
2023/01/22 00:47:36;;;;;;;24.92;16.90;;;;;;;8.39;95.30;94879.84;5029230;28;20692;-65
2023/01/22 00:50:03;;;;;;;23.30;15.88;;;;;;;8.41;94.76;94878.88;5030105;28;20310;-64
2023/01/22 00:52:31;;;;;;;20.27;15.52;;;;;;;8.53;93.78;94882.78;5029988;28;20210;-66
2023/01/22 00:54:58;;;;;;;26.20;17.88;;;;;;;8.69;93.74;94886.53;5029018;28;20218;-65
2023/01/22 00:57:24;;;;;;;23.85;16.52;;;;;;;8.62;92.77;94886.78;5029268;28;20821;-66
2023/01/22 00:59:52;;;;;;;20.30;15.93;;;;;;;8.40;93.62;94886.56;5029005;28;20211;-65
2023/01/22 01:02:18;;;;;;;23.15;15.55;;;;;;;8.39;94.36;94885.72;5028918;28;20341;-67
2023/01/22 01:04:45;;;;;;;19.83;14.40;;;;;;;8.57;94.27;94894.50;5028519;28;20618;-68
2023/01/22 01:07:12;;;;;;;19.75;14.38;;;;;;;8.38;93.71;94898.44;5029558;28;20219;-67
2023/01/22 01:09:40;;;;;;;17.25;13.65;;;;;;;8.40;94.36;94894.16;5028417;28;20261;-63
2023/01/22 01:12:08;;;;;;;19.10;14.85;;;;;;;8.35;94.77;94916.25;5029379;28;21144;-65
2023/01/22 01:14:34;;;;;;;19.02;14.40;;;;;;;8.34;95.40;94919.63;5029658;28;20231;-67
2023/01/22 01:17:01;;;;;;;21.10;14.82;;;;;;;8.46;94.92;94914.22;5029620;28;20200;-64
2023/01/22 01:19:28;;;;;;;24.73;15.63;;;;;;;8.41;95.33;94898.34;5028696;28;20210;-63
2023/01/22 01:21:55;;;;;;;26.67;16.73;;;;;;;8.41;95.20;94919.41;5029152;28;20211;-65
2023/01/22 01:24:21;;;;;;;24.45;16.77;;;;;;;8.39;95.28;94917.81;5028487;28;20207;-63
2023/01/22 01:26:49;;;;;;;27.55;18.02;;;;;;;8.42;94.82;94930.38;5028403;28;20252;-66
2023/01/22 01:29:16;;;;;;;26.52;17.45;;;;;;;8.53;94.62;94948.66;5025756;28;21847;-65
2023/01/22 01:31:43;;;;;;;27.10;18.85;;;;;;;8.48;94.21;94950.47;5028932;28;20234;-66
2023/01/22 01:34:10;;;;;;;28.00;18.27;;;;;;;8.48;95.10;94950.47;5028690;28;20203;-66
2023/01/22 01:36:36;;;;;;;26.33;18.25;;;;;;;8.46;95.46;94953.03;5025964;28;20199;-64
2023/01/22 01:39:03;;;;;;;31.63;19.58;;;;;;;8.54;95.35;94945.25;5026480;28;20237;-64
2023/01/22 01:41:30;;;;;;;28.10;19.52;;;;;;;8.45;95.66;94946.31;5027448;28;20685;-65
2023/01/22 01:44:11;;;;;;;24.35;19.17;;;;;;;8.39;95.94;94950.72;5028269;28;20207;-65
2023/01/22 01:46:42;;;;;;;26.60;20.25;;;;;;;8.35;95.42;94954.22;5028357;28;20233;-63
2023/01/22 01:49:18;;;;;;;28.27;19.75;;;;;;;8.50;95.89;94948.72;5028511;28;20265;-67
2023/01/22 01:51:45;;;;;;;31.27;20.65;;;;;;;8.55;95.02;94946.91;5029420;28;20206;-63
2023/01/22 01:54:12;;;;;;;26.88;19.52;;;;;;;8.62;94.33;94953.47;5026795;28;20202;-67
2023/01/22 01:56:44;;;;;;;24.15;18.25;;;;;;;8.60;94.44;94945.06;5027305;28;20203;-66
2023/01/22 01:59:14;;;;;;;23.92;18.10;;;;;;;8.43;95.27;94922.72;5028011;28;20230;-66
2023/01/22 02:01:41;;;;;;;26.42;18.42;;;;;;;8.50;94.46;94931.00;5028859;28;20199;-67
2023/01/22 02:04:08;;;;;;;26.75;19.02;;;;;;;8.55;95.28;94936.78;5029466;28;20220;-67
2023/01/22 02:06:35;;;;;;;23.38;17.88;;;;;;;8.65;94.47;94943.25;5028119;28;20219;-63
2023/01/22 02:09:02;;;;;;;29.10;18.30;;;;;;;8.46;94.45;94927.72;5028117;28;20962;-65
2023/01/22 02:11:30;;;;;;;27.13;18.40;;;;;;;8.39;94.97;94935.53;5026898;28;20211;-65
2023/01/22 02:14:01;;;;;;;25.35;17.73;;;;;;;8.35;95.84;94934.78;5028448;28;20268;-67
2023/01/22 02:16:29;;;;;;;26.45;18.48;;;;;;;8.35;96.20;94933.97;5028884;28;20215;-66
2023/01/22 02:18:56;;;;;;;23.45;17.85;;;;;;;8.38;96.50;94941.47;5027271;28;20292;-69
2023/01/22 02:21:37;;;;;;;23.13;17.88;;;;;;;8.17;96.45;94951.25;5028230;28;20573;-67
2023/01/22 02:24:05;;;;;;;25.83;18.90;;;;;;;8.30;97.03;94953.47;5027345;28;20707;-65
2023/01/22 02:26:32;;;;;;;25.67;18.45;;;;;;;8.34;97.22;94952.56;5028266;28;20229;-64
2023/01/22 02:28:59;;;;;;;26.85;19.17;;;;;;;8.63;95.14;94951.78;5028835;28;20214;-63
2023/01/22 02:31:26;;;;;;;27.00;17.75;;;;;;;8.51;94.71;94947.84;5027571;28;20242;-66
2023/01/22 02:33:53;;;;;;;23.92;17.67;;;;;;;8.39;95.86;94941.44;5025320;28;20699;-65
2023/01/22 02:36:20;;;;;;;22.23;16.13;;;;;;;8.30;96.15;94935.75;5025582;28;20774;-63
2023/01/22 02:38:48;;;;;;;26.92;17.83;;;;;;;8.17;96.97;94931.00;5028845;28;20258;-66
2023/01/22 02:41:15;;;;;;;25.38;17.63;;;;;;;8.18;96.44;94898.91;5026841;28;20820;-64
2023/01/22 02:43:42;;;;;;;24.88;17.20;;;;;;;8.27;96.10;94926.53;5028093;28;20607;-63
2023/01/22 02:46:09;;;;;;;27.10;15.95;;;;;;;8.10;97.05;94931.22;5027822;28;20230;-65
2023/01/22 02:48:35;;;;;;;26.98;17.92;;;;;;;8.16;97.56;94933.59;5028622;28;20261;-64
2023/01/22 02:51:02;;;;;;;25.25;17.30;;;;;;;8.12;96.91;94922.72;5028200;28;20218;-65
2023/01/22 02:53:29;;;;;;;22.00;16.73;;;;;;;8.33;97.26;94948.34;5027084;28;20199;-63
2023/01/22 02:55:57;;;;;;;24.38;17.38;;;;;;;8.35;96.77;94951.69;5026784;28;20230;-63
2023/01/22 02:58:24;;;;;;;27.10;17.70;;;;;;;8.46;97.10;94954.75;5027168;28;20207;-65
2023/01/22 03:00:51;;;;;;;23.75;15.48;;;;;;;8.49;95.74;94954.66;5026639;28;20206;-67
2023/01/22 03:03:17;;;;;;;21.50;15.23;;;;;;;8.38;95.75;94959.19;5026361;28;20218;-66
2023/01/22 03:05:48;;;;;;;23.75;16.30;;;;;;;8.31;96.70;94947.53;5025930;28;20928;-65
2023/01/22 03:08:15;;;;;;;17.13;12.75;;;;;;;8.23;96.14;94942.66;5030040;28;20272;-65
2023/01/22 03:10:41;;;;;;;19.67;13.93;;;;;;;8.20;96.21;94928.38;5030012;28;20265;-66
2023/01/22 03:21:23;;;;;;;19.77;13.77;;;;;;;8.60;95.99;94954.38;5031217;28;20214;-64
2023/01/22 03:23:51;;;;;;;19.23;14.07;;;;;;;8.57;96.06;94947.69;5031461;28;20206;-64
2023/01/22 03:26:19;;;;;;;21.13;15.77;;;;;;;8.63;95.46;94945.00;5030420;28;20724;-63
2023/01/22 03:28:48;;;;;;;19.52;14.80;;;;;;;8.49;94.60;94942.00;5031446;28;20735;-65
2023/01/22 03:31:16;;;;;;;23.23;16.00;;;;;;;8.52;94.47;94952.03;5030299;28;20678;-64
2023/01/22 03:33:43;;;;;;;19.45;15.55;;;;;;;8.40;94.94;94953.22;5031827;28;20202;-66
2023/01/22 03:36:12;;;;;;;24.33;16.35;;;;;;;8.36;95.06;94950.81;5031108;28;20220;-63
2023/01/22 03:38:39;;;;;;;21.90;15.70;;;;;;;8.22;94.82;94957.88;5031338;28;20215;-63
2023/01/22 03:41:08;;;;;;;22.05;14.95;;;;;;;8.04;96.40;94960.03;5030482;28;20215;-62
2023/01/22 03:43:35;;;;;;;21.45;14.25;;;;;;;7.95;95.86;94962.78;5031806;28;20221;-69
2023/01/22 03:46:05;;;;;;;18.70;14.40;;;;;;;8.10;96.32;94964.94;5031158;28;20757;-62
2023/01/22 03:48:33;;;;;;;19.80;14.80;;;;;;;7.97;96.77;94963.59;5030996;28;20669;-64
2023/01/22 03:51:05;;;;;;;24.23;15.10;;;;;;;7.78;97.60;94964.91;5030131;28;20203;-64
2023/01/22 03:53:32;;;;;;;21.85;13.65;;;;;;;7.75;97.12;94962.44;5029851;28;20249;-64
2023/01/22 03:56:00;;;;;;;20.30;15.77;;;;;;;7.72;97.04;94973.47;5031407;28;20211;-66
2023/01/22 03:58:28;;;;;;;21.65;13.25;;;;;;;7.79;96.82;94961.50;5031047;28;20199;-65
2023/01/22 04:00:56;;;;;;;20.65;14.27;;;;;;;7.77;96.82;94970.84;5030276;28;20264;-66
2023/01/22 04:03:26;;;;;;;18.10;13.23;;;;;;;7.81;97.29;94973.25;5030346;28;20668;-64
2023/01/22 04:05:53;;;;;;;18.58;13.25;;;;;;;7.86;96.37;94970.63;5031714;28;20202;-64
2023/01/22 04:08:21;;;;;;;18.58;12.57;;;;;;;7.90;97.14;94972.22;5031044;28;20240;-65
2023/01/22 04:10:48;;;;;;;11.95;9.98;;;;;;;8.05;94.92;94981.94;5031102;28;20203;-66
2023/01/22 04:13:14;;;;;;;11.50;9.75;;;;;;;8.02;94.02;94982.00;5030774;28;20222;-64
2023/01/22 04:15:43;;;;;;;8.70;7.80;;;;;;;7.81;92.66;94958.09;5030293;28;20207;-64
2023/01/22 04:18:10;;;;;;;7.45;6.85;;;;;;;7.99;93.23;94982.09;5031164;28;20297;-66
2023/01/22 04:20:38;;;;;;;12.30;7.35;;;;;;;7.92;93.02;94985.63;5031577;28;20257;-65
2023/01/22 04:23:05;;;;;;;7.63;6.82;;;;;;;7.69;93.69;94992.94;5030509;28;20642;-64
2023/01/22 04:25:32;;;;;;;7.07;6.47;;;;;;;7.79;92.77;94992.69;5030291;28;20215;-64
2023/01/22 04:27:58;;;;;;;8.30;5.53;;;;;;;7.69;92.71;94995.47;5030608;28;20230;-66
2023/01/22 04:30:25;;;;;;;5.78;5.18;;;;;;;7.56;92.68;94992.41;5030167;28;20661;-65
2023/01/22 04:32:52;;;;;;;6.18;4.38;;;;;;;7.59;93.22;94996.56;5031004;28;20199;-66
2023/01/22 04:35:19;;;;;;;6.45;4.65;;;;;;;7.71;92.17;95003.84;5030563;28;20233;-66
2023/01/22 04:37:47;;;;;;;7.75;4.50;;;;;;;7.81;91.35;95003.63;5031100;28;20265;-65
2023/01/22 04:40:14;;;;;;;6.70;5.35;;;;;;;7.78;91.19;95010.44;5030048;28;20235;-66
2023/01/22 04:42:41;;;;;;;6.68;6.15;;;;;;;7.75;91.86;95018.09;5030968;28;20260;-65
2023/01/22 04:45:09;;;;;;;8.70;6.35;;;;;;;7.80;92.31;95021.38;5029440;28;20257;-63
2023/01/22 04:47:40;;;;;;;8.30;6.57;;;;;;;7.83;91.62;95026.34;5030389;28;20238;-65
2023/01/22 04:50:08;;;;;;;7.47;6.07;;;;;;;7.87;92.26;95022.88;5030673;28;20687;-64
2023/01/22 04:52:34;;;;;;;7.78;6.47;;;;;;;7.89;92.02;95033.81;5029784;28;20357;-65
2023/01/22 04:55:03;;;;;;;8.65;6.53;;;;;;;7.94;91.92;95021.03;5029091;28;20265;-64
2023/01/22 04:57:29;;;;;;;7.68;6.88;;;;;;;8.09;91.92;95044.28;5030505;28;20199;-63
2023/01/22 04:59:56;;;;;;;13.77;11.35;;;;;;;8.11;92.38;95046.78;5029587;28;20688;-65
2023/01/22 05:02:23;;;;;;;17.67;12.73;;;;;;;8.16;92.56;95047.50;5029555;28;20312;-64
2023/01/22 05:04:49;;;;;;;20.17;12.43;;;;;;;8.01;93.25;95056.28;5029679;28;20214;-62
2023/01/22 05:07:16;;;;;;;15.50;11.98;;;;;;;8.09;92.74;95054.41;5028829;28;22380;-65
2023/01/22 05:09:43;;;;;;;19.20;12.05;;;;;;;8.18;92.15;95055.84;5030623;28;20214;-65
2023/01/22 05:12:11;;;;;;;16.77;11.98;;;;;;;8.13;92.23;95066.13;5030270;28;20257;-64
2023/01/22 05:14:38;;;;;;;14.95;11.85;;;;;;;8.13;92.92;95073.72;5029347;28;20802;-66
2023/01/22 05:17:04;;;;;;;12.38;9.57;;;;;;;8.12;92.63;95067.00;5029395;28;20204;-64
2023/01/22 05:19:31;;;;;;;14.73;11.95;;;;;;;8.17;92.48;95077.81;5029520;28;20207;-66
2023/01/22 05:21:58;;;;;;;22.80;15.18;;;;;;;8.10;92.89;95081.38;5028691;28;20660;-65
2023/01/22 05:24:24;;;;;;;21.88;14.30;;;;;;;8.10;92.84;95088.97;5029527;28;20206;-65
2023/01/22 05:26:52;;;;;;;19.92;15.65;;;;;;;8.15;92.52;95086.34;5029671;28;20199;-66
2023/01/22 05:29:24;;;;;;;18.17;14.95;;;;;;;8.04;91.91;95094.16;5028228;28;20573;-63
2023/01/22 05:31:51;;;;;;;23.27;15.18;;;;;;;8.04;92.21;95091.63;5029217;28;20296;-65
2023/01/22 05:34:18;;;;;;;24.00;15.85;;;;;;;7.97;92.92;95095.16;5030391;28;20345;-66
2023/01/22 05:36:45;;;;;;;22.23;14.90;;;;;;;7.91;92.18;95100.38;5028715;28;20284;-62
2023/01/22 05:39:11;;;;;;;27.70;15.43;;;;;;;7.93;92.38;95113.81;5029746;28;20240;-65
2023/01/22 05:41:38;;;;;;;25.77;17.10;;;;;;;7.92;92.87;95122.25;5028844;28;20207;-65
2023/01/22 05:44:06;;;;;;;24.35;15.93;;;;;;;7.90;93.13;95121.50;5028864;28;20264;-63
2023/01/22 05:46:34;;;;;;;18.98;14.35;;;;;;;7.84;93.09;95135.09;5029458;28;20253;-66
2023/01/22 05:49:00;;;;;;;18.98;14.52;;;;;;;7.78;93.91;95139.47;5029916;28;20230;-66
2023/01/22 05:51:27;;;;;;;22.85;16.27;;;;;;;7.76;94.60;95142.03;5028566;28;20637;-65
2023/01/22 05:53:54;;;;;;;20.80;14.45;;;;;;;7.80;94.84;95150.38;5041651;28;20260;-66
2023/01/22 05:56:20;;;;;;;25.65;16.17;;;;;;;7.91;93.29;95151.00;5050726;28;20252;-69
2023/01/22 05:58:47;;;;;;;22.95;14.95;;;;;;;7.87;93.71;95148.56;5050840;28;20199;-65
2023/01/22 06:01:14;;;;;;;21.42;14.48;;;;;;;7.71;93.81;95153.09;5049511;28;20211;-66
2023/01/22 06:03:43;;;;;;;15.00;12.20;;;;;;;7.73;93.80;95148.84;5049745;28;20680;-66
2023/01/22 06:06:12;;;;;;;18.67;12.63;;;;;;;7.81;93.12;95159.63;5051048;28;20299;-67
2023/01/22 06:08:39;;;;;;;16.02;12.50;;;;;;;7.75;92.52;95164.81;5050990;28;20223;-66
2023/01/22 06:11:08;;;;;;;18.50;13.10;;;;;;;7.93;91.68;95174.53;5050939;28;20199;-66
2023/01/22 06:13:34;;;;;;;17.63;13.32;;;;;;;8.01;90.98;95165.09;5042778;28;20277;-67
2023/01/22 06:16:01;;;;;;;20.60;14.20;;;;;;;8.05;89.88;95169.22;5030749;28;20203;-66
2023/01/22 06:18:28;;;;;;;17.45;13.43;;;;;;;8.03;91.15;95180.25;5030234;28;20199;-68
2023/01/22 06:20:59;;;;;;;21.60;14.95;;;;;;;8.18;89.76;95183.25;5030392;28;20203;-66
2023/01/22 06:23:26;;;;;;;19.63;15.82;;;;;;;8.44;89.09;95189.47;5030635;28;20227;-67
2023/01/22 06:25:55;;;;;;;20.77;15.40;;;;;;;8.97;87.85;95172.13;5030757;28;20291;-63
2023/01/22 06:28:22;;;;;;;23.70;15.48;;;;;;;9.81;84.44;95180.81;5030396;28;20231;-66
2023/01/22 06:30:49;;;;;;;21.45;14.98;;;;;;;10.51;81.98;95186.38;5030367;28;20243;-65
2023/01/22 06:33:16;;;;;;;18.30;13.55;;;;;;;10.49;80.44;95193.19;5030599;28;20200;-66
2023/01/22 06:35:43;;;;;;;18.52;14.63;;;;;;;10.04;81.17;95193.69;5030579;28;20208;-64
2023/01/22 06:38:11;;;;;;;19.77;14.35;;;;;;;9.54;82.82;95190.03;5030645;28;20207;-66
2023/01/22 06:40:37;;;;;;;24.90;15.35;;;;;;;9.20;84.16;95197.72;5031946;28;20219;-66
2023/01/22 06:43:05;;;;;;;23.52;16.10;;;;;;;8.97;85.80;95197.47;5034340;28;20633;-66
2023/01/22 06:45:32;;;;;;;19.77;15.65;;;;;;;8.90;86.33;95201.88;5034723;28;20223;-67
2023/01/22 06:47:59;;;;;;;22.90;15.85;;;;;;;8.83;86.46;95201.19;5034270;28;20656;-66
2023/01/22 06:50:25;;;;;;;19.17;15.52;;;;;;;9.31;87.15;95200.81;5034756;28;20199;-66
2023/01/22 06:52:52;;;;;;;23.27;15.90;;;;;;;10.96;83.52;95208.66;5034513;28;20661;-66
2023/01/22 06:55:20;;;;;;;16.38;14.07;;;;;;;12.81;76.13;95216.38;5034599;28;20200;-66
2023/01/22 06:57:47;;;;;;;18.98;14.73;;;;;;;14.28;69.10;95212.63;5033952;28;20677;-68
2023/01/22 07:00:14;;;;;;;19.67;14.15;;;;;;;14.76;66.67;95213.81;5034528;28;20203;-66
2023/01/22 07:02:41;;;;;;;19.30;15.13;;;;;;;14.44;67.11;95217.06;5034117;28;20587;-64
2023/01/22 07:05:08;;;;;;;17.25;14.43;;;;;;;15.12;66.24;95223.19;5034215;28;20251;-66
2023/01/22 07:07:35;;;;;;;13.98;12.48;;;;;;;16.13;61.51;95214.63;5034182;28;20223;-67
2023/01/22 07:10:02;;;;;;;15.05;12.50;;;;;;;16.81;58.99;95217.81;5033964;28;20207;-65
2023/01/22 07:12:30;;;;;;;14.82;13.05;;;;;;;16.55;59.05;95223.50;5033805;28;20316;-65
2023/01/22 07:14:56;;;;;;;16.08;14.30;;;;;;;16.56;60.17;95220.03;5033778;28;20273;-66
2023/01/22 07:17:23;;;;;;;18.17;14.82;;;;;;;17.65;57.20;95211.28;5033928;28;20226;-66
2023/01/22 07:19:50;;;;;;;24.10;17.58;;;;;;;18.93;53.82;95205.16;5033655;28;20206;-66
2023/01/22 07:22:16;;;;;;;20.25;16.02;;;;;;;20.09;49.86;95216.31;5033400;28;20628;-67
2023/01/22 07:24:43;;;;;;;15.50;13.73;;;;;;;21.23;47.25;95210.03;5033954;28;20257;-65
2023/01/22 07:27:10;;;;;;;16.65;12.60;;;;;;;21.51;44.62;95214.81;5033674;28;20204;-66
2023/01/22 07:29:38;;;;;;;24.40;17.80;;;;;;;21.37;45.59;95215.81;5033367;28;20223;-68
2023/01/22 07:32:05;;;;;;;36.80;24.75;;;;;;;21.20;46.42;95210.22;5033032;28;20290;-66
2023/01/22 07:34:32;;;;;;;22.92;17.02;;;;;;;21.35;45.90;95206.53;5033498;28;20200;-66
2023/01/22 07:37:00;;;;;;;17.77;14.18;;;;;;;21.71;45.05;95208.97;5033528;28;20203;-67
2023/01/22 07:39:27;;;;;;;15.52;13.77;;;;;;;22.45;43.59;95208.56;5033483;28;20227;-67
2023/01/22 07:41:54;;;;;;;14.88;13.38;;;;;;;22.99;42.23;95216.38;5033245;28;20200;-66
2023/01/22 07:44:20;;;;;;;20.10;16.15;;;;;;;23.23;41.48;95226.53;5033225;28;20196;-66
2023/01/22 07:46:49;;;;;;;22.60;17.25;;;;;;;22.94;42.33;95229.69;5032754;28;20587;-67
2023/01/22 07:49:15;;;;;;;21.80;18.08;;;;;;;22.51;43.24;95210.69;5033418;28;20310;-67
2023/01/22 07:51:42;;;;;;;23.38;17.55;;;;;;;21.23;45.89;95212.63;5032207;28;20199;-66
2023/01/22 07:54:09;;;;;;;20.80;17.88;;;;;;;19.76;48.25;95228.94;5032961;28;20214;-66
2023/01/22 07:56:35;;;;;;;24.38;20.30;;;;;;;18.17;51.79;95230.47;5032618;28;20204;-65
2023/01/22 07:59:02;;;;;;;51.40;35.45;;;;;;;16.91;55.31;95230.94;5033167;28;20301;-66
2023/01/22 08:01:29;;;;;;;23.10;18.75;;;;;;;15.95;57.87;95234.38;5032668;28;20199;-65
2023/01/22 08:03:57;;;;;;;19.02;16.40;;;;;;;15.17;59.84;95249.41;5033077;28;20203;-66
2023/01/22 08:06:23;;;;;;;20.88;17.10;;;;;;;14.44;62.28;95232.41;5032787;28;20669;-65
2023/01/22 08:08:50;;;;;;;24.45;18.35;;;;;;;13.60;65.43;95244.59;5032967;28;20234;-64
2023/01/22 08:11:17;;;;;;;28.80;18.48;;;;;;;13.40;66.60;95251.41;5032741;28;20728;-65
2023/01/22 08:13:44;;;;;;;26.48;17.45;;;;;;;13.47;67.22;95252.81;5032887;28;20204;-67
2023/01/22 08:16:11;;;;;;;22.00;15.45;;;;;;;13.43;66.53;95251.28;5032614;28;20695;-64
2023/01/22 08:18:37;;;;;;;26.75;18.15;;;;;;;13.20;67.93;95257.34;5032804;28;20202;-64
2023/01/22 08:21:06;;;;;;;22.10;17.60;;;;;;;12.99;69.15;95255.63;5032617;28;20581;-65
2023/01/22 08:23:33;;;;;;;25.70;20.95;;;;;;;12.81;70.04;95267.38;5032595;28;20195;-65
2023/01/22 08:26:00;;;;;;;41.40;28.58;;;;;;;12.72;70.66;95268.56;5032289;28;20672;-65
2023/01/22 08:28:26;;;;;;;42.88;32.53;;;;;;;12.62;71.45;95262.13;5032536;28;20315;-65
2023/01/22 08:30:57;;;;;;;41.55;32.10;;;;;;;12.45;72.25;95269.59;5032425;28;20235;-64
2023/01/22 08:33:24;;;;;;;37.13;26.52;;;;;;;12.34;72.55;95269.19;5032376;28;20294;-66
2023/01/22 08:35:51;;;;;;;27.63;22.55;;;;;;;12.35;72.50;95258.13;5053410;28;20650;-66
2023/01/22 08:38:19;;;;;;;29.33;21.23;;;;;;;12.44;72.72;95263.69;5032026;28;20757;-63
2023/01/22 08:40:49;;;;;;;29.52;21.35;;;;;;;12.60;71.88;95259.69;5047643;28;20718;-64
2023/01/22 08:43:16;;;;;;;30.02;19.88;;;;;;;12.50;72.14;95260.06;5072050;28;20289;-65
2023/01/22 08:45:43;;;;;;;51.05;32.00;;;;;;;12.40;72.46;95267.22;5072263;28;20201;-65
2023/01/22 08:48:10;;;;;;;27.52;19.58;;;;;;;12.35;72.76;95269.13;5072295;28;20303;-66
2023/01/22 08:50:36;;;;;;;31.67;21.88;;;;;;;12.38;73.39;95263.06;5071944;28;20199;-65
2023/01/22 08:53:03;;;;;;;27.65;20.70;;;;;;;12.62;72.74;95262.13;5072053;28;20202;-65
2023/01/22 08:55:31;;;;;;;31.35;19.40;;;;;;;12.94;72.15;95274.47;5071058;28;20260;-65
2023/01/22 08:57:58;;;;;;;29.55;19.63;;;;;;;13.50;70.30;95266.28;5070216;28;20202;-65
2023/01/22 09:00:26;;;;;;;25.33;17.33;;;;;;;13.70;68.69;95272.28;5070439;28;20217;-65
2023/01/22 09:02:57;;;;;;;24.38;17.90;;;;;;;13.59;68.98;95265.91;5070110;28;20205;-64
2023/01/22 09:05:23;;;;;;;23.65;16.95;;;;;;;13.33;69.41;95263.63;5070343;28;20556;-66
2023/01/22 09:07:50;;;;;;;25.60;17.25;;;;;;;13.19;69.70;95261.59;5070265;28;20195;-63
2023/01/22 09:10:17;;;;;;;23.83;17.45;;;;;;;13.25;70.52;95263.09;5070728;28;20202;-65
2023/01/22 09:12:45;;;;;;;21.00;16.10;;;;;;;13.28;69.35;95268.06;5071311;28;20201;-63
2023/01/22 09:15:12;;;;;;;21.58;14.00;;;;;;;13.14;69.08;95262.66;5071628;28;20201;-64
2023/01/22 09:17:40;;;;;;;18.55;14.80;;;;;;;12.71;69.57;95273.72;5071274;28;20198;-65
2023/01/22 09:20:07;;;;;;;22.95;15.40;;;;;;;12.50;71.05;95271.09;5071492;28;20194;-65
2023/01/22 09:22:34;;;;;;;25.17;17.40;;;;;;;12.85;71.58;95261.28;5071439;28;20199;-63
2023/01/22 09:25:00;;;;;;;23.27;16.23;;;;;;;13.47;69.61;95266.41;5071440;28;20206;-66
2023/01/22 09:27:27;;;;;;;23.58;16.60;;;;;;;14.15;68.23;95267.72;5070926;28;20198;-65
2023/01/22 09:29:55;;;;;;;26.75;18.70;;;;;;;14.54;66.25;95264.34;5070156;28;20653;-66
2023/01/22 09:32:22;;;;;;;26.70;18.63;;;;;;;14.58;64.70;95264.13;5070624;28;20742;-65
2023/01/22 09:34:49;;;;;;;29.05;20.23;;;;;;;14.61;65.30;95261.41;5071262;28;20202;-65
2023/01/22 09:37:15;;;;;;;29.13;18.90;;;;;;;14.71;65.61;95256.69;5070770;28;20194;-64
2023/01/22 09:39:42;;;;;;;25.75;17.55;;;;;;;14.64;64.49;95260.44;5059948;28;20222;-67
2023/01/22 09:42:14;;;;;;;42.53;27.45;;;;;;;14.59;65.80;95259.84;5050773;28;20222;-67
2023/01/22 09:44:44;;;;;;;46.63;28.20;;;;;;;15.02;66.16;95255.25;5050292;28;20226;-63
2023/01/22 09:47:16;;;;;;;27.60;17.60;;;;;;;15.20;62.94;95251.81;5017330;28;20241;-66
2023/01/22 09:49:51;;;;;;;22.35;15.77;;;;;;;14.78;63.78;95247.84;5028175;28;20345;-66
2023/01/22 09:52:18;;;;;;;20.05;14.88;;;;;;;14.07;65.22;95256.22;5028819;28;20591;-65
2023/01/22 09:54:45;;;;;;;21.88;16.33;;;;;;;13.51;68.42;95255.19;5028285;28;20525;-65
2023/01/22 09:57:14;;;;;;;25.67;16.40;;;;;;;13.31;68.75;95229.66;5028886;28;20211;-68
2023/01/22 09:59:49;;;;;;;25.02;17.35;;;;;;;13.81;71.80;95250.50;5029302;28;20855;-70
2023/01/22 10:02:26;;;;;;;21.73;16.15;;;;;;;13.88;68.11;95248.50;5028840;28;20245;-62
2023/01/22 10:04:57;;;;;;;22.95;14.70;;;;;;;13.37;69.32;95247.25;5028616;28;20207;-65
2023/01/22 10:07:28;;;;;;;19.20;14.55;;;;;;;12.80;69.64;95243.59;5028721;28;20592;-66
2023/01/22 10:09:57;;;;;;;17.98;13.40;;;;;;;12.15;72.54;95251.19;5028700;28;20272;-66
2023/01/22 10:12:29;;;;;;;18.80;12.80;;;;;;;12.17;72.67;95254.50;5027830;28;20207;-68
2023/01/22 10:14:55;;;;;;;17.73;13.25;;;;;;;12.10;73.05;95246.28;5027467;28;20294;-66
2023/01/22 10:17:34;;;;;;;18.88;14.18;;;;;;;12.18;73.83;95256.16;5028750;28;20202;-67
2023/01/22 10:20:04;;;;;;;25.10;14.63;;;;;;;12.15;73.81;95253.72;5028432;28;20223;-65
2023/01/22 10:22:31;;;;;;;21.35;14.23;;;;;;;12.03;74.16;95252.47;5028142;28;20207;-66
2023/01/22 10:24:58;;;;;;;24.50;15.07;;;;;;;11.92;74.28;95254.56;5028689;28;20206;-65
2023/01/22 10:27:34;;;;;;;25.67;15.80;;;;;;;11.83;75.20;95250.63;5027277;28;20203;-66
2023/01/22 10:30:15;;;;;;;23.90;16.58;;;;;;;11.57;76.42;95243.88;5026584;28;20744;-65
2023/01/22 10:32:44;;;;;;;25.88;17.02;;;;;;;11.69;77.43;95246.88;5027937;28;20921;-66
2023/01/22 10:35:18;;;;;;;23.65;15.95;;;;;;;11.75;77.64;95250.03;5028075;28;20211;-65
2023/01/22 10:37:47;;;;;;;23.13;15.05;;;;;;;11.98;76.64;95249.25;5026716;28;20294;-66
2023/01/22 10:40:23;;;;;;;20.23;14.20;;;;;;;11.68;77.03;95248.59;5027253;28;20589;-67
2023/01/22 10:43:00;;;;;;;21.60;14.02;;;;;;;11.70;76.83;95248.53;5027181;28;20209;-65
2023/01/22 10:45:27;;;;;;;18.48;12.30;;;;;;;11.87;76.13;95253.91;5027298;28;20292;-66
2023/01/22 10:48:06;;;;;;;18.35;12.05;;;;;;;12.34;75.22;95251.34;5026627;28;20647;-68
2023/01/22 10:50:32;;;;;;;13.00;9.10;;;;;;;12.71;71.39;95250.75;5026893;28;20841;-67
2023/01/22 10:52:59;;;;;;;14.27;8.38;;;;;;;13.09;70.73;95234.78;5028251;28;20214;-65
2023/01/22 10:55:29;;;;;;;11.57;7.38;;;;;;;13.37;67.99;95243.88;5028921;28;20203;-67
2023/01/22 10:58:01;;;;;;;16.80;8.50;;;;;;;13.44;68.17;95241.00;5027560;28;20284;-66
2023/01/22 11:00:33;;;;;;;12.25;6.95;;;;;;;13.61;66.98;95242.84;5029913;28;20919;-66
2023/01/22 11:03:01;;;;;;;10.02;8.10;;;;;;;13.83;68.06;95237.66;5014881;28;20207;-65
2023/01/22 11:05:34;;;;;;;13.32;8.88;;;;;;;14.22;67.09;95235.91;5028508;28;20203;-67
2023/01/22 11:08:04;;;;;;;15.98;9.18;;;;;;;14.34;67.61;95236.25;5026544;28;20217;-65
2023/01/22 11:10:39;;;;;;;16.67;10.63;;;;;;;14.48;66.98;95228.81;5027974;28;20230;-67
2023/01/22 11:13:13;;;;;;;10.77;9.18;;;;;;;14.53;65.40;95231.97;5026976;28;20207;-67
2023/01/22 11:15:46;;;;;;;10.23;7.68;;;;;;;14.34;65.91;95243.94;5027868;28;20206;-66
2023/01/22 11:18:18;;;;;;;8.32;6.88;;;;;;;13.88;66.93;95233.16;5028028;28;20205;-68
2023/01/22 11:20:49;;;;;;;9.25;7.57;;;;;;;13.68;67.52;95241.69;5028466;28;20214;-66
2023/01/22 11:23:24;;;;;;;9.60;6.43;;;;;;;13.45;67.60;95244.38;5026224;28;20211;-67
2023/01/22 11:26:00;;;;;;;9.05;6.45;;;;;;;13.42;67.39;95235.13;5025698;28;20202;-70
2023/01/22 11:28:40;;;;;;;8.10;5.80;;;;;;;13.37;67.35;95237.03;5026780;28;20203;-67
2023/01/22 11:31:22;;;;;;;9.98;7.13;;;;;;;13.32;67.85;95236.44;5028090;28;20244;-68
2023/01/22 11:34:37;;;;;;;14.63;7.28;;;;;;;13.43;67.70;95241.06;5028605;28;20195;-66
2023/01/22 11:37:12;;;;;;;8.70;6.10;;;;;;;13.16;68.86;95248.13;5009526;28;20218;-67